Time;durP1;ratioP1;P1;durP2;ratioP2;P2;SDS_P1;SDS_P2;PMS_P1;PMS_P2;Temp;Humidity;BMP_temperature;BMP_pressure;BME280_temperature;BME280_humidity;BME280_pressure;Samples;Min_cycle;Max_cycle;Signal;HPM_P1;HPM_P2
2023/11/06 00:01:43;;;;;;;;;;;11.00;85.00;;;;;;5100381;28;19931;-66
2023/11/06 00:04:16;;;;;;;;;;;10.90;84.90;;;;;;5094236;28;19923;-66
2023/11/06 00:06:49;;;;;;;;;;;10.90;85.40;;;;;;5094074;28;19931;-66
2023/11/06 00:09:37;;;;;;;;;;;11.00;85.30;;;;;;5095510;28;22136;-60
2023/11/06 00:12:18;;;;;;;;;;;11.00;85.50;;;;;;5097038;28;19928;-61
2023/11/06 00:14:52;;;;;;;;;;;11.00;85.30;;;;;;5095941;28;19939;-60
2023/11/06 00:17:19;;;;;;;;;;;10.90;85.10;;;;;;5099627;28;19932;-61
2023/11/06 00:19:51;;;;;;;;;;;10.90;85.20;;;;;;5096570;28;20018;-60
2023/11/06 00:22:24;;;;;;;;;;;10.90;85.00;;;;;;5096765;28;20029;-59
2023/11/06 00:24:57;;;;;;;;;;;10.90;84.80;;;;;;5093597;28;19928;-59
2023/11/06 00:27:32;;;;;;;;;;;10.90;85.20;;;;;;5099763;28;19985;-62
2023/11/06 00:30:07;;;;;;;;;;;10.90;85.30;;;;;;5096339;28;19924;-62
2023/11/06 00:32:40;;;;;;;;;;;10.90;85.30;;;;;;5096440;28;20375;-59
2023/11/06 00:35:15;;;;;;;;;;;10.90;85.20;;;;;;5095557;28;19931;-60
2023/11/06 00:37:49;;;;;;;;;;;10.90;85.20;;;;;;5094969;28;19932;-60
2023/11/06 00:40:21;;;;;;;;;;;10.90;85.10;;;;;;5095250;28;19935;-60
2023/11/06 00:42:57;;;;;;;;;;;10.90;85.00;;;;;;5086532;28;19935;-60
2023/11/06 00:45:30;;;;;;;;;;;10.90;85.10;;;;;;5103813;28;19931;-61
2023/11/06 00:48:04;;;;;;;;;;;10.90;85.10;;;;;;5117737;27;19928;-61
2023/11/06 00:50:38;;;;;;;;;;;10.90;85.20;;;;;;5103934;27;20003;-61
2023/11/06 00:53:10;;;;;;;;;;;10.90;85.30;;;;;;5087894;28;19979;-59
2023/11/06 00:55:39;;;;;;;;;;;10.90;85.20;;;;;;5097959;28;20010;-60
2023/11/06 00:58:16;;;;;;;;;;;10.90;85.40;;;;;;5092599;28;20509;-61
2023/11/06 01:00:50;;;;;;;;;;;10.90;85.00;;;;;;5100989;27;20114;-61
2023/11/06 01:03:23;;;;;;;;;;;10.80;85.10;;;;;;5116661;27;19931;-62
2023/11/06 01:05:58;;;;;;;;;;;10.80;85.20;;;;;;5100738;28;20379;-61
2023/11/06 01:08:31;;;;;;;;;;;10.80;85.40;;;;;;5115290;27;19966;-62
2023/11/06 01:11:05;;;;;;;;;;;10.70;85.40;;;;;;5100205;28;19963;-61
2023/11/06 01:13:40;;;;;;;;;;;10.80;85.50;;;;;;5099662;28;19989;-61
2023/11/06 01:16:13;;;;;;;;;;;10.70;85.60;;;;;;5102097;28;19974;-61
2023/11/06 01:18:46;;;;;;;;;;;10.70;85.70;;;;;;5102667;28;19927;-65
2023/11/06 01:21:19;;;;;;;;;;;10.70;85.70;;;;;;5101980;28;19928;-66
2023/11/06 01:23:52;;;;;;;;;;;10.70;85.80;;;;;;5100428;28;19960;-65
2023/11/06 01:26:25;;;;;;;;;;;10.70;86.00;;;;;;5098018;28;20402;-66
2023/11/06 01:29:00;;;;;;;;;;;10.70;86.20;;;;;;5100746;28;19932;-66
2023/11/06 01:31:33;;;;;;;;;;;10.70;86.40;;;;;;5111368;27;19932;-65
2023/11/06 01:34:06;;;;;;;;;;;10.60;86.30;;;;;;5101955;27;20431;-64
2023/11/06 01:36:42;;;;;;;;;;;10.60;86.40;;;;;;5101253;28;19924;-65
2023/11/06 01:39:15;;;;;;;;;;;10.70;86.40;;;;;;5098830;28;19932;-64
2023/11/06 01:41:49;;;;;;;;;;;10.60;86.40;;;;;;5102096;27;20371;-67
2023/11/06 01:44:24;;;;;;;;;;;10.60;86.40;;;;;;5098221;28;20023;-64
2023/11/06 01:46:51;;;;;;;;;;;10.60;86.50;;;;;;5100069;28;20402;-64
2023/11/06 01:49:24;;;;;;;;;;;10.70;86.50;;;;;;5101086;28;19935;-64
2023/11/06 01:51:57;;;;;;;;;;;10.60;86.50;;;;;;5113236;27;19927;-63
2023/11/06 01:54:31;;;;;;;;;;;10.60;86.60;;;;;;5117760;27;20371;-65
2023/11/06 01:57:05;;;;;;;;;;;10.60;86.60;;;;;;5099595;28;20274;-64
2023/11/06 01:59:40;;;;;;;;;;;10.60;86.50;;;;;;5096720;28;20340;-64
2023/11/06 02:02:17;;;;;;;;;;;10.60;86.60;;;;;;5100759;27;19981;-65
2023/11/06 02:04:51;;;;;;;;;;;10.60;86.60;;;;;;5097257;28;19924;-64
2023/11/06 02:07:24;;;;;;;;;;;10.60;86.60;;;;;;5100507;28;19928;-65
2023/11/06 02:09:58;;;;;;;;;;;10.60;86.70;;;;;;5100492;28;19932;-65
2023/11/06 02:12:31;;;;;;;;;;;10.60;86.70;;;;;;5096492;28;19931;-65
2023/11/06 02:15:11;;;;;;;;;;;10.60;86.80;;;;;;5099207;27;19928;-65
2023/11/06 02:17:45;;;;;;;;;;;10.60;86.90;;;;;;5099659;28;19972;-66
2023/11/06 02:20:17;;;;;;;;;;;10.60;87.00;;;;;;5102607;27;20003;-65
2023/11/06 02:22:51;;;;;;;;;;;10.60;87.40;;;;;;5100074;27;19928;-65
2023/11/06 02:25:26;;;;;;;;;;;10.60;87.80;;;;;;5098148;28;19967;-64
2023/11/06 02:27:59;;;;;;;;;;;10.50;88.20;;;;;;5089493;28;19951;-60
2023/11/06 02:30:32;;;;;;;;;;;10.50;88.30;;;;;;5109807;27;19928;-60
2023/11/06 02:33:05;;;;;;;;;;;10.50;88.60;;;;;;5098778;28;19924;-59
2023/11/06 02:35:38;;;;;;;;;;;10.50;88.70;;;;;;5101497;28;19977;-60
2023/11/06 02:38:11;;;;;;;;;;;10.50;88.50;;;;;;5102431;27;19932;-60
2023/11/06 02:40:46;;;;;;;;;;;10.50;88.50;;;;;;5099438;28;20434;-61
2023/11/06 02:43:19;;;;;;;;;;;10.50;88.50;;;;;;5099543;28;19935;-60
2023/11/06 02:45:53;;;;;;;;;;;10.50;88.60;;;;;;5100572;27;19934;-60
2023/11/06 02:48:26;;;;;;;;;;;10.50;88.50;;;;;;5101216;28;19924;-61
2023/11/06 02:50:59;;;;;;;;;;;10.60;88.40;;;;;;5100428;28;19931;-60
2023/11/06 02:53:32;;;;;;;;;;;10.50;88.40;;;;;;5099596;28;19927;-61
2023/11/06 02:56:01;;;;;;;;;;;10.50;88.40;;;;;;5098114;28;19924;-61
2023/11/06 02:58:33;;;;;;;;;;;10.60;88.30;;;;;;5098839;28;20508;-60
2023/11/06 03:01:07;;;;;;;;;;;10.50;88.30;;;;;;5100103;28;19923;-60
2023/11/06 03:03:40;;;;;;;;;;;10.60;88.20;;;;;;5100903;28;19936;-59
2023/11/06 03:06:09;;;;;;;;;;;10.50;88.20;;;;;;5099304;28;19927;-60
2023/11/06 03:08:42;;;;;;;;;;;10.50;88.20;;;;;;5105423;27;19924;-66
2023/11/06 03:11:17;;;;;;;;;;;10.50;88.20;;;;;;5098780;28;20883;-61
2023/11/06 03:13:50;;;;;;;;;;;10.50;88.30;;;;;;5099433;28;19924;-61
2023/11/06 03:16:23;;;;;;;;;;;10.50;88.40;;;;;;5101230;28;19924;-61
2023/11/06 03:18:56;;;;;;;;;;;10.50;88.40;;;;;;5099707;28;19924;-61
2023/11/06 03:21:30;;;;;;;;;;;10.50;88.40;;;;;;5100854;28;20022;-61
2023/11/06 03:24:03;;;;;;;;;;;10.50;88.40;;;;;;5115811;27;19943;-61
2023/11/06 03:26:37;;;;;;;;;;;10.50;88.50;;;;;;5098080;28;19924;-62
2023/11/06 03:29:10;;;;;;;;;;;10.50;88.40;;;;;;5100795;28;19927;-61
2023/11/06 03:31:43;;;;;;;;;;;10.50;88.40;;;;;;5099009;28;20545;-62
2023/11/06 03:34:16;;;;;;;;;;;10.50;88.50;;;;;;5091617;28;20386;-59
2023/11/06 03:36:50;;;;;;;;;;;10.50;88.40;;;;;;5098389;28;20034;-60
2023/11/06 03:39:23;;;;;;;;;;;10.50;88.40;;;;;;5097361;28;19928;-62
2023/11/06 03:41:58;;;;;;;;;;;10.50;88.30;;;;;;5089214;28;20000;-60
2023/11/06 03:44:32;;;;;;;;;;;10.50;88.30;;;;;;5098107;28;19978;-61
2023/11/06 03:47:05;;;;;;;;;;;10.50;88.20;;;;;;5098871;28;19935;-62
2023/11/06 03:49:45;;;;;;;;;;;10.50;88.10;;;;;;5100175;28;19928;-60
2023/11/06 03:52:19;;;;;;;;;;;10.50;88.20;;;;;;5101612;28;19966;-61
2023/11/06 03:54:52;;;;;;;;;;;10.50;88.20;;;;;;5114049;27;19924;-61
2023/11/06 03:57:27;;;;;;;;;;;10.50;88.10;;;;;;5099156;28;19924;-62
2023/11/06 04:00:00;;;;;;;;;;;10.50;88.10;;;;;;5092928;28;20158;-61
2023/11/06 04:02:37;;;;;;;;;;;10.50;87.90;;;;;;5091077;28;19993;-61
2023/11/06 04:05:10;;;;;;;;;;;10.50;87.80;;;;;;5091298;28;19963;-60
2023/11/06 04:07:43;;;;;;;;;;;10.50;87.70;;;;;;5095391;28;19939;-62
2023/11/06 04:10:17;;;;;;;;;;;10.50;87.40;;;;;;5092581;28;19928;-61
2023/11/06 04:12:51;;;;;;;;;;;10.50;87.40;;;;;;5091414;28;20374;-61
2023/11/06 04:15:24;;;;;;;;;;;10.50;87.30;;;;;;5093811;28;19924;-61
2023/11/06 04:17:57;;;;;;;;;;;10.50;87.20;;;;;;5101315;28;19935;-61
2023/11/06 04:20:30;;;;;;;;;;;10.40;87.20;;;;;;5099264;28;19928;-60
2023/11/06 04:23:04;;;;;;;;;;;10.50;87.20;;;;;;5100886;28;19924;-60
2023/11/06 04:25:37;;;;;;;;;;;10.40;87.30;;;;;;5097844;28;20019;-60
2023/11/06 04:28:11;;;;;;;;;;;10.50;87.40;;;;;;5100455;28;19963;-60
2023/11/06 04:30:38;;;;;;;;;;;10.50;87.40;;;;;;5096948;28;19923;-62
2023/11/06 04:33:11;;;;;;;;;;;10.50;87.40;;;;;;5099768;28;19963;-61
2023/11/06 04:35:37;;;;;;;;;;;10.50;87.40;;;;;;5102666;28;19942;-61
2023/11/06 04:38:11;;;;;;;;;;;10.50;87.30;;;;;;5104061;28;19924;-60
2023/11/06 04:40:37;;;;;;;;;;;10.50;87.30;;;;;;5099659;28;20056;-60
2023/11/06 04:43:12;;;;;;;;;;;10.50;87.20;;;;;;5098107;28;19931;-61
2023/11/06 04:45:45;;;;;;;;;;;10.40;87.10;;;;;;5100825;28;19924;-61
2023/11/06 04:48:18;;;;;;;;;;;10.50;87.10;;;;;;5099253;28;19953;-68
2023/11/06 04:50:51;;;;;;;;;;;10.50;87.00;;;;;;5095629;28;19931;-67
2023/11/06 04:53:25;;;;;;;;;;;10.50;86.90;;;;;;5104202;28;19990;-68
2023/11/06 04:55:57;;;;;;;;;;;10.40;86.70;;;;;;5101284;27;19924;-68
2023/11/06 04:58:38;;;;;;;;;;;10.40;86.50;;;;;;5101516;28;20027;-68
2023/11/06 05:01:11;;;;;;;;;;;10.50;86.60;;;;;;5093844;28;19928;-69
2023/11/06 05:03:44;;;;;;;;;;;10.50;86.50;;;;;;5109697;27;19984;-69
2023/11/06 05:06:11;;;;;;;;;;;10.40;86.60;;;;;;5101426;28;19938;-68
2023/11/06 05:08:44;;;;;;;;;;;10.50;86.60;;;;;;5097910;28;19940;-68
2023/11/06 05:11:18;;;;;;;;;;;10.40;86.60;;;;;;5097892;28;19931;-67
2023/11/06 05:13:54;;;;;;;;;;;10.40;86.60;;;;;;5099387;28;19985;-67
2023/11/06 05:16:28;;;;;;;;;;;10.40;86.50;;;;;;5100238;28;19955;-69
2023/11/06 05:19:01;;;;;;;;;;;10.40;86.60;;;;;;5100776;28;19927;-68
2023/11/06 05:21:35;;;;;;;;;;;10.40;86.50;;;;;;5098744;28;19978;-68
2023/11/06 05:24:09;;;;;;;;;;;10.40;86.50;;;;;;5100459;28;19942;-67
2023/11/06 05:26:41;;;;;;;;;;;10.40;86.50;;;;;;5092076;28;20015;-67
2023/11/06 05:29:16;;;;;;;;;;;10.40;86.50;;;;;;5097874;28;19934;-67
2023/11/06 05:31:49;;;;;;;;;;;10.40;86.50;;;;;;5099580;28;19928;-67
2023/11/06 05:34:23;;;;;;;;;;;10.40;86.40;;;;;;5097723;28;20412;-68
2023/11/06 05:36:56;;;;;;;;;;;10.40;86.40;;;;;;5098946;27;20371;-69
2023/11/06 05:39:28;;;;;;;;;;;10.40;86.30;;;;;;5098309;27;19924;-68
2023/11/06 05:42:02;;;;;;;;;;;10.40;86.20;;;;;;5098698;28;20330;-68
2023/11/06 05:44:38;;;;;;;;;;;10.40;86.10;;;;;;5099790;28;19938;-68
2023/11/06 05:47:12;;;;;;;;;;;10.40;86.20;;;;;;5096456;28;19928;-67
2023/11/06 05:49:44;;;;;;;;;;;10.40;86.20;;;;;;5103012;28;19942;-68
2023/11/06 05:52:18;;;;;;;;;;;10.40;86.20;;;;;;5101306;28;19942;-67
2023/11/06 05:54:51;;;;;;;;;;;10.40;86.20;;;;;;5096976;28;20595;-67
2023/11/06 05:57:23;;;;;;;;;;;10.40;86.10;;;;;;5099258;28;20390;-67
2023/11/06 05:59:58;;;;;;;;;;;10.40;86.20;;;;;;5112578;27;19975;-65
2023/11/06 06:02:39;;;;;;;;;;;10.40;86.30;;;;;;5097975;28;19934;-65
2023/11/06 06:05:13;;;;;;;;;;;10.40;86.30;;;;;;5098366;28;20018;-64
2023/11/06 06:07:46;;;;;;;;;;;10.40;86.30;;;;;;5097209;28;19924;-67
2023/11/06 06:10:20;;;;;;;;;;;10.40;86.10;;;;;;5095775;28;19935;-67
2023/11/06 06:12:53;;;;;;;;;;;10.50;86.10;;;;;;5098760;27;19928;-65
2023/11/06 06:15:27;;;;;;;;;;;10.40;86.00;;;;;;5106158;27;19939;-66
2023/11/06 06:18:01;;;;;;;;;;;10.40;86.00;;;;;;5094765;28;19928;-66
2023/11/06 06:20:35;;;;;;;;;;;10.50;86.00;;;;;;5108031;28;19966;-65
2023/11/06 06:23:09;;;;;;;;;;;10.50;86.10;;;;;;5100991;28;19984;-65
2023/11/06 06:25:43;;;;;;;;;;;10.50;86.10;;;;;;5099135;28;19928;-65
2023/11/06 06:28:17;;;;;;;;;;;10.50;86.20;;;;;;5098081;28;19931;-66
2023/11/06 06:30:51;;;;;;;;;;;10.40;86.30;;;;;;5102700;28;19928;-66
2023/11/06 06:33:25;;;;;;;;;;;10.40;86.30;;;;;;5095272;28;19927;-65
2023/11/06 06:35:58;;;;;;;;;;;10.40;86.40;;;;;;5097699;28;19934;-64
2023/11/06 06:38:32;;;;;;;;;;;10.40;86.30;;;;;;5095772;28;19931;-64
2023/11/06 06:41:05;;;;;;;;;;;10.40;86.30;;;;;;5099782;28;19925;-65
2023/11/06 06:43:38;;;;;;;;;;;10.40;86.30;;;;;;5095609;28;21045;-66
2023/11/06 06:46:12;;;;;;;;;;;10.40;86.10;;;;;;5094693;28;19924;-66
2023/11/06 06:48:46;;;;;;;;;;;10.50;86.20;;;;;;5095951;28;19955;-65
2023/11/06 06:51:19;;;;;;;;;;;10.50;86.20;;;;;;5095033;28;19931;-66
2023/11/06 06:53:52;;;;;;;;;;;10.50;86.20;;;;;;5096434;28;19986;-66
2023/11/06 06:56:26;;;;;;;;;;;10.50;86.20;;;;;;5097537;28;19925;-65
2023/11/06 06:58:59;;;;;;;;;;;10.50;86.20;;;;;;5098455;28;19927;-67
2023/11/06 07:01:33;;;;;;;;;;;10.50;86.20;;;;;;5093064;27;20006;-65
2023/11/06 07:04:07;;;;;;;;;;;10.50;86.20;;;;;;5099490;28;19928;-65
2023/11/06 07:06:40;;;;;;;;;;;10.50;86.10;;;;;;5101730;28;19924;-65
2023/11/06 07:09:13;;;;;;;;;;;10.50;86.10;;;;;;5093596;28;20006;-62
2023/11/06 07:11:47;;;;;;;;;;;10.50;86.10;;;;;;5093923;28;19928;-58
2023/11/06 07:14:20;;;;;;;;;;;10.50;86.10;;;;;;5100782;28;19993;-59
2023/11/06 07:16:54;;;;;;;;;;;10.50;86.10;;;;;;5102441;28;19955;-61
2023/11/06 07:19:28;;;;;;;;;;;10.50;86.00;;;;;;5098440;28;19931;-60
2023/11/06 07:22:01;;;;;;;;;;;10.50;86.10;;;;;;5097054;28;19928;-60
2023/11/06 07:24:34;;;;;;;;;;;10.60;86.10;;;;;;5101481;28;19927;-60
2023/11/06 07:27:08;;;;;;;;;;;10.50;86.10;;;;;;5098596;28;19923;-61
2023/11/06 07:29:41;;;;;;;;;;;10.60;86.00;;;;;;5091730;28;19930;-61
2023/11/06 07:32:15;;;;;;;;;;;10.60;86.00;;;;;;5095031;28;19932;-60
2023/11/06 07:34:49;;;;;;;;;;;10.70;85.80;;;;;;5100759;28;19928;-60
2023/11/06 07:37:23;;;;;;;;;;;10.70;85.60;;;;;;5095442;28;19928;-61
2023/11/06 07:39:56;;;;;;;;;;;10.70;85.40;;;;;;5097334;28;20022;-61
2023/11/06 07:42:29;;;;;;;;;;;10.70;85.30;;;;;;5091949;28;19963;-60
2023/11/06 07:45:03;;;;;;;;;;;10.70;84.90;;;;;;5096224;28;19989;-61
2023/11/06 07:47:37;;;;;;;;;;;10.80;84.60;;;;;;5094417;27;19924;-61
2023/11/06 07:50:11;;;;;;;;;;;10.80;84.50;;;;;;5097655;28;20371;-61
2023/11/06 07:52:44;;;;;;;;;;;10.90;84.30;;;;;;5099520;28;20275;-61
2023/11/06 07:55:17;;;;;;;;;;;11.00;84.10;;;;;;5102410;28;19928;-60
2023/11/06 07:57:50;;;;;;;;;;;11.00;83.90;;;;;;5098680;28;19924;-61
2023/11/06 08:00:23;;;;;;;;;;;10.90;83.90;;;;;;5098824;28;19924;-61
2023/11/06 08:02:57;;;;;;;;;;;11.10;83.90;;;;;;5099918;28;19932;-60
2023/11/06 08:05:31;;;;;;;;;;;11.10;83.50;;;;;;5092751;28;19928;-60
2023/11/06 08:08:04;;;;;;;;;;;11.00;83.40;;;;;;5097693;28;19927;-60
2023/11/06 08:10:37;;;;;;;;;;;11.00;83.10;;;;;;5094753;28;20018;-62
2023/11/06 08:13:10;;;;;;;;;;;11.00;82.90;;;;;;5100579;28;20367;-61
2023/11/06 08:15:49;;;;;;;;;;;11.10;82.70;;;;;;5098542;28;20382;-64
2023/11/06 08:18:25;;;;;;;;;;;11.10;82.60;;;;;;5099134;28;19924;-61
2023/11/06 08:20:59;;;;;;;;;;;11.10;82.20;;;;;;5098328;28;20623;-60
2023/11/06 08:23:33;;;;;;;;;;;11.10;82.20;;;;;;5099695;28;19932;-61
2023/11/06 08:26:06;;;;;;;;;;;11.20;82.00;;;;;;5097868;28;19924;-61
2023/11/06 08:28:33;;;;;;;;;;;11.30;82.10;;;;;;5098879;28;20415;-61
2023/11/06 08:31:06;;;;;;;;;;;11.30;81.70;;;;;;5100500;28;19970;-60
2023/11/06 08:33:34;;;;;;;;;;;11.40;81.70;;;;;;5098639;28;20024;-60
2023/11/06 08:36:09;;;;;;;;;;;11.40;81.40;;;;;;5098991;28;20015;-60
2023/11/06 08:38:43;;;;;;;;;;;11.30;81.50;;;;;;5098249;28;19928;-63
2023/11/06 08:41:16;;;;;;;;;;;11.30;81.50;;;;;;5099335;28;19931;-60
2023/11/06 08:43:49;;;;;;;;;;;11.30;81.30;;;;;;5099834;28;19976;-61
2023/11/06 08:46:22;;;;;;;;;;;11.40;81.40;;;;;;5098788;28;20337;-61
2023/11/06 08:48:56;;;;;;;;;;;11.40;81.30;;;;;;5099472;28;20362;-61
2023/11/06 08:51:31;;;;;;;;;;;11.40;81.50;;;;;;5100164;28;19928;-61
2023/11/06 08:54:05;;;;;;;;;;;11.40;81.10;;;;;;5098792;28;20019;-61
2023/11/06 08:56:39;;;;;;;;;;;11.40;81.10;;;;;;5099005;28;19932;-59
2023/11/06 08:59:12;;;;;;;;;;;11.40;81.10;;;;;;5095300;28;19939;-59
2023/11/06 09:01:39;;;;;;;;;;;11.40;81.00;;;;;;5099134;28;19931;-58
2023/11/06 09:04:13;;;;;;;;;;;11.50;81.20;;;;;;5104162;28;19954;-58
2023/11/06 09:06:47;;;;;;;;;;;11.50;80.90;;;;;;5102622;28;20020;-61
2023/11/06 09:09:20;;;;;;;;;;;11.50;81.00;;;;;;5103528;28;20416;-59
2023/11/06 09:11:53;;;;;;;;;;;11.50;81.00;;;;;;5103427;28;19935;-58
2023/11/06 09:14:19;;;;;;;;;;;11.60;80.80;;;;;;5102499;28;19928;-60
2023/11/06 09:16:53;;;;;;;;;;;11.60;80.90;;;;;;5103146;28;19935;-61
2023/11/06 09:19:27;;;;;;;;;;;11.70;80.80;;;;;;5101019;27;19927;-62
2023/11/06 09:22:01;;;;;;;;;;;11.70;80.80;;;;;;5103080;27;19928;-60
2023/11/06 09:24:34;;;;;;;;;;;11.80;80.50;;;;;;5103262;28;19950;-61
2023/11/06 09:27:07;;;;;;;;;;;11.80;80.20;;;;;;5103104;28;19928;-60
2023/11/06 09:29:41;;;;;;;;;;;11.90;80.20;;;;;;5102640;27;19935;-74
2023/11/06 09:32:16;;;;;;;;;;;11.90;80.00;;;;;;5103372;27;19928;-74
2023/11/06 09:34:50;;;;;;;;;;;11.90;79.70;;;;;;5101532;28;19939;-74
2023/11/06 09:37:24;;;;;;;;;;;11.90;79.70;;;;;;5104020;28;19924;-75
2023/11/06 09:39:59;;;;;;;;;;;12.00;79.80;;;;;;5101087;27;20403;-73
2023/11/06 09:42:33;;;;;;;;;;;12.00;79.50;;;;;;5103788;28;19935;-75
2023/11/06 09:45:00;;;;;;;;;;;12.00;79.60;;;;;;5102250;28;19931;-74
2023/11/06 09:47:36;;;;;;;;;;;12.00;79.50;;;;;;5103187;28;20398;-73
2023/11/06 09:50:13;;;;;;;;;;;12.00;79.30;;;;;;5102865;28;19924;-75
2023/11/06 09:52:47;;;;;;;;;;;12.00;79.40;;;;;;5102489;28;19928;-73
2023/11/06 09:55:21;;;;;;;;;;;12.00;79.50;;;;;;5102575;28;19930;-75
2023/11/06 09:57:48;;;;;;;;;;;12.10;79.30;;;;;;5100292;28;19931;-74
2023/11/06 10:00:22;;;;;;;;;;;12.10;79.30;;;;;;5102814;28;20336;-73
2023/11/06 10:02:56;;;;;;;;;;;12.20;79.20;;;;;;5101569;28;20395;-73
2023/11/06 10:05:30;;;;;;;;;;;12.10;79.10;;;;;;5101505;28;19928;-74
2023/11/06 10:08:04;;;;;;;;;;;12.10;78.80;;;;;;5102117;27;19932;-74
2023/11/06 10:10:40;;;;;;;;;;;12.10;78.60;;;;;;5102964;28;19928;-74
2023/11/06 10:13:14;;;;;;;;;;;12.20;78.40;;;;;;5101271;28;19928;-74
2023/11/06 10:15:47;;;;;;;;;;;12.20;78.30;;;;;;5101772;28;19971;-74
2023/11/06 10:18:20;;;;;;;;;;;12.20;78.10;;;;;;5101860;28;20011;-74
2023/11/06 10:20:55;;;;;;;;;;;12.30;78.10;;;;;;5100288;28;19963;-74
2023/11/06 10:23:30;;;;;;;;;;;12.30;78.10;;;;;;5102044;27;20016;-74
2023/11/06 10:26:10;;;;;;;;;;;12.40;77.60;;;;;;5102842;28;20299;-74
2023/11/06 10:28:43;;;;;;;;;;;12.30;77.40;;;;;;5100949;27;19928;-74
2023/11/06 10:31:16;;;;;;;;;;;12.40;77.40;;;;;;5101499;28;19970;-74
2023/11/06 10:33:49;;;;;;;;;;;12.40;77.30;;;;;;5102002;28;19935;-73
2023/11/06 10:36:23;;;;;;;;;;;12.40;77.40;;;;;;5102815;28;20035;-74
2023/11/06 10:39:08;;;;;;;;;;;12.40;77.40;;;;;;5102022;27;19924;-61
2023/11/06 10:41:42;;;;;;;;;;;12.40;77.40;;;;;;5100559;28;20019;-59
2023/11/06 10:44:16;;;;;;;;;;;12.40;77.40;;;;;;5100563;28;19971;-61
2023/11/06 10:46:50;;;;;;;;;;;12.40;76.70;;;;;;5102197;28;19939;-61
2023/11/06 10:49:27;;;;;;;;;;;12.50;76.70;;;;;;5100174;28;19965;-61
2023/11/06 10:52:03;;;;;;;;;;;12.60;76.90;;;;;;5100359;28;19924;-61
2023/11/06 10:54:38;;;;;;;;;;;12.60;76.50;;;;;;5099897;28;20394;-60
2023/11/06 10:57:16;;;;;;;;;;;12.60;76.40;;;;;;5100500;28;19923;-60
2023/11/06 10:59:51;;;;;;;;;;;12.70;76.50;;;;;;5100069;28;20295;-62
2023/11/06 11:02:32;;;;;;;;;;;12.60;75.90;;;;;;5098760;28;19932;-61
2023/11/06 11:05:07;;;;;;;;;;;12.60;76.00;;;;;;5096060;28;19966;-62
2023/11/06 11:07:42;;;;;;;;;;;12.70;75.80;;;;;;5095778;28;19927;-61
2023/11/06 11:10:18;;;;;;;;;;;12.90;75.60;;;;;;5097286;28;19991;-62
2023/11/06 11:12:52;;;;;;;;;;;12.90;75.70;;;;;;5099770;28;19924;-62
2023/11/06 11:15:26;;;;;;;;;;;13.00;74.70;;;;;;5099809;28;19935;-62
2023/11/06 11:18:04;;;;;;;;;;;13.10;74.80;;;;;;5096169;28;19932;-61
2023/11/06 11:20:58;;;;;;;;;;;13.20;74.30;;;;;;5102512;28;19928;-61
2023/11/06 11:23:39;;;;;;;;;;;13.20;73.60;;;;;;5097853;28;19969;-62
2023/11/06 11:26:13;;;;;;;;;;;13.20;73.10;;;;;;5101649;28;19924;-62
2023/11/06 11:28:54;;;;;;;;;;;13.20;73.00;;;;;;5099417;28;19931;-61
2023/11/06 11:31:39;;;;;;;;;;;13.10;73.00;;;;;;5099353;28;19963;-61
2023/11/06 11:34:26;;;;;;;;;;;13.10;72.50;;;;;;5098050;27;20026;-61
2023/11/06 11:37:00;;;;;;;;;;;13.10;72.80;;;;;;5098807;28;19928;-61
2023/11/06 11:39:49;;;;;;;;;;;13.20;72.80;;;;;;5100024;28;20382;-61
2023/11/06 11:42:23;;;;;;;;;;;13.10;72.80;;;;;;5100729;28;19935;-61
2023/11/06 11:44:51;;;;;;;;;;;13.10;72.40;;;;;;5100014;27;20371;-61
2023/11/06 11:47:24;;;;;;;;;;;13.10;72.60;;;;;;5098373;28;19931;-62
2023/11/06 11:49:57;;;;;;;;;;;13.00;72.50;;;;;;5096195;28;19985;-74
2023/11/06 11:52:45;;;;;;;;;;;13.00;72.70;;;;;;5101988;28;20383;-74
2023/11/06 11:55:39;;;;;;;;;;;12.90;72.60;;;;;;5097886;28;19928;-74
2023/11/06 11:58:14;;;;;;;;;;;12.90;73.00;;;;;;5096368;28;19935;-72
2023/11/06 12:00:47;;;;;;;;;;;13.00;72.90;;;;;;5100678;28;19931;-72
2023/11/06 12:03:20;;;;;;;;;;;13.10;73.00;;;;;;5094027;28;19940;-72
2023/11/06 12:05:59;;;;;;;;;;;13.20;72.70;;;;;;5097597;28;19932;-72
2023/11/06 12:08:32;;;;;;;;;;;13.20;72.70;;;;;;5100350;28;19925;-73
2023/11/06 12:11:07;;;;;;;;;;;13.30;72.90;;;;;;5098492;28;19970;-72
2023/11/06 12:13:42;;;;;;;;;;;13.30;72.90;;;;;;5114177;28;20035;-73
2023/11/06 12:16:16;;;;;;;;;;;13.30;73.10;;;;;;5094101;28;20397;-73
2023/11/06 12:18:49;;;;;;;;;;;13.40;73.10;;;;;;5096104;28;19935;-74
2023/11/06 12:21:22;;;;;;;;;;;13.40;72.90;;;;;;5099422;28;19932;-74
2023/11/06 12:23:55;;;;;;;;;;;13.40;72.90;;;;;;5095332;28;19972;-72
2023/11/06 12:26:28;;;;;;;;;;;13.40;72.90;;;;;;5097275;28;19935;-74
2023/11/06 12:29:02;;;;;;;;;;;13.50;72.60;;;;;;5100122;28;19942;-76
2023/11/06 12:31:36;;;;;;;;;;;13.40;72.60;;;;;;5098547;28;20316;-74
2023/11/06 12:34:19;;;;;;;;;;;13.40;72.80;;;;;;5099161;28;20379;-74
2023/11/06 12:37:03;;;;;;;;;;;13.40;72.60;;;;;;5099971;27;20344;-73
2023/11/06 12:39:38;;;;;;;;;;;13.30;72.70;;;;;;5104578;28;19931;-74
2023/11/06 12:42:12;;;;;;;;;;;13.40;72.60;;;;;;5102494;28;19977;-74
2023/11/06 12:44:46;;;;;;;;;;;13.40;72.50;;;;;;5102473;27;20406;-74
2023/11/06 12:47:34;;;;;;;;;;;13.40;72.20;;;;;;5100087;28;19943;-74
2023/11/06 12:50:11;;;;;;;;;;;13.40;72.20;;;;;;5103879;28;19928;-75
2023/11/06 12:52:44;;;;;;;;;;;13.40;72.30;;;;;;5103449;28;19932;-73
2023/11/06 12:55:18;;;;;;;;;;;13.40;72.40;;;;;;5098411;27;19925;-72
2023/11/06 12:57:51;;;;;;;;;;;13.40;72.40;;;;;;5103760;28;19924;-69
2023/11/06 13:00:29;;;;;;;;;;;13.40;72.40;;;;;;5103593;28;19935;-68
2023/11/06 13:03:03;;;;;;;;;;;13.50;72.30;;;;;;5096368;28;19924;-69
2023/11/06 13:05:37;;;;;;;;;;;13.50;72.80;;;;;;5101926;28;19931;-69
2023/11/06 13:08:11;;;;;;;;;;;13.60;72.80;;;;;;5093885;28;19934;-70
2023/11/06 13:10:45;;;;;;;;;;;13.60;72.50;;;;;;5098249;28;20026;-69
2023/11/06 13:13:18;;;;;;;;;;;13.70;72.40;;;;;;5102782;28;20016;-69
2023/11/06 13:15:53;;;;;;;;;;;13.60;72.30;;;;;;5105037;28;19931;-67
2023/11/06 13:18:27;;;;;;;;;;;13.60;72.40;;;;;;5100608;28;19928;-69
2023/11/06 13:21:11;;;;;;;;;;;13.60;72.30;;;;;;5103562;28;19924;-68
2023/11/06 13:23:46;;;;;;;;;;;13.60;72.30;;;;;;5103242;28;19951;-69
2023/11/06 13:26:20;;;;;;;;;;;13.40;72.40;;;;;;5102549;28;20023;-69
2023/11/06 13:28:53;;;;;;;;;;;13.40;72.80;;;;;;5102266;28;19939;-69
2023/11/06 13:31:27;;;;;;;;;;;13.40;72.90;;;;;;5103032;28;19927;-68
2023/11/06 13:34:01;;;;;;;;;;;13.40;72.80;;;;;;5101517;28;19938;-68
2023/11/06 13:36:36;;;;;;;;;;;13.40;72.80;;;;;;5103081;28;19924;-68
2023/11/06 13:39:13;;;;;;;;;;;13.50;73.10;;;;;;5100942;27;19927;-68
2023/11/06 13:41:47;;;;;;;;;;;13.60;73.20;;;;;;5103912;28;19951;-68
2023/11/06 13:44:20;;;;;;;;;;;13.50;73.20;;;;;;5102388;28;19928;-68
2023/11/06 13:46:54;;;;;;;;;;;13.50;73.30;;;;;;5096760;28;19927;-69
2023/11/06 13:49:28;;;;;;;;;;;13.40;73.60;;;;;;5102054;28;19935;-69
2023/11/06 13:52:19;;;;;;;;;;;13.40;73.60;;;;;;5099522;28;20042;-68
2023/11/06 13:54:53;;;;;;;;;;;13.40;73.60;;;;;;5093376;28;19932;-69
2023/11/06 13:57:26;;;;;;;;;;;13.40;73.90;;;;;;5096686;27;19927;-69
2023/11/06 13:59:59;;;;;;;;;;;13.30;73.80;;;;;;5090006;28;19928;-68
2023/11/06 14:02:40;;;;;;;;;;;13.30;74.20;;;;;;5100209;28;19924;-68
2023/11/06 14:05:15;;;;;;;;;;;13.20;74.50;;;;;;5099890;28;19928;-68
2023/11/06 14:07:48;;;;;;;;;;;13.20;74.40;;;;;;5101787;28;19932;-68
2023/11/06 14:10:30;;;;;;;;;;;13.20;74.70;;;;;;5099823;28;19987;-68
2023/11/06 14:13:03;;;;;;;;;;;13.20;74.80;;;;;;5099015;27;19928;-68
2023/11/06 14:15:43;;;;;;;;;;;13.20;74.90;;;;;;5100929;28;19931;-68
2023/11/06 14:18:19;;;;;;;;;;;13.20;75.00;;;;;;5100387;27;19963;-67
2023/11/06 14:20:54;;;;;;;;;;;13.20;75.30;;;;;;5102448;27;20302;-68
2023/11/06 14:23:28;;;;;;;;;;;13.20;75.40;;;;;;5103603;28;19930;-67
2023/11/06 14:26:03;;;;;;;;;;;13.20;75.50;;;;;;5099026;28;19924;-68
2023/11/06 14:28:37;;;;;;;;;;;13.10;75.80;;;;;;5101942;27;19963;-68
2023/11/06 14:31:10;;;;;;;;;;;13.10;76.00;;;;;;5099080;28;19978;-67
2023/11/06 14:33:44;;;;;;;;;;;13.10;76.50;;;;;;5101236;28;19930;-68
2023/11/06 14:36:18;;;;;;;;;;;13.00;76.60;;;;;;5099844;28;19977;-68
2023/11/06 14:38:51;;;;;;;;;;;12.90;76.80;;;;;;5101285;27;19924;-67
2023/11/06 14:41:26;;;;;;;;;;;12.90;77.10;;;;;;5099760;28;19924;-68
2023/11/06 14:43:59;;;;;;;;;;;12.90;77.80;;;;;;5099960;28;19935;-68
2023/11/06 14:46:32;;;;;;;;;;;12.90;78.10;;;;;;5099397;28;19986;-69
2023/11/06 14:49:08;;;;;;;;;;;12.70;78.40;;;;;;5096698;28;19936;-69
2023/11/06 14:51:41;;;;;;;;;;;12.70;79.30;;;;;;5098905;28;20019;-69
2023/11/06 14:54:14;;;;;;;;;;;12.60;80.40;;;;;;5113012;27;19928;-68
2023/11/06 14:56:47;;;;;;;;;;;12.60;81.00;;;;;;5099752;28;19935;-68